sensor_id;sensor_type;location;lat;lon;timestamp;temperature;humidity
336;DHT22;156;48.738;9.228;2023-05-07T00:00:25;15.30;1.00
336;DHT22;156;48.738;9.228;2023-05-07T00:02:52;15.30;1.00
336;DHT22;156;48.738;9.228;2023-05-07T00:05:19;15.30;1.00
336;DHT22;156;48.738;9.228;2023-05-07T00:07:46;15.30;1.00
336;DHT22;156;48.738;9.228;2023-05-07T00:10:14;15.20;1.00
336;DHT22;156;48.738;9.228;2023-05-07T00:12:41;15.30;1.00
336;DHT22;156;48.738;9.228;2023-05-07T00:15:09;15.20;1.00
336;DHT22;156;48.738;9.228;2023-05-07T00:17:36;15.20;1.00
336;DHT22;156;48.738;9.228;2023-05-07T00:20:04;15.20;1.00
336;DHT22;156;48.738;9.228;2023-05-07T00:22:33;15.10;1.00
336;DHT22;156;48.738;9.228;2023-05-07T00:25:00;15.00;1.00
336;DHT22;156;48.738;9.228;2023-05-07T00:27:29;14.90;1.00
336;DHT22;156;48.738;9.228;2023-05-07T00:29:59;14.80;1.00
336;DHT22;156;48.738;9.228;2023-05-07T00:32:25;14.70;1.00
336;DHT22;156;48.738;9.228;2023-05-07T00:34:52;14.80;1.00
336;DHT22;156;48.738;9.228;2023-05-07T00:37:19;14.80;1.00
336;DHT22;156;48.738;9.228;2023-05-07T00:39:48;14.70;1.00
336;DHT22;156;48.738;9.228;2023-05-07T00:42:15;14.70;1.00
336;DHT22;156;48.738;9.228;2023-05-07T00:44:43;14.60;1.00
336;DHT22;156;48.738;9.228;2023-05-07T00:47:10;14.50;1.00
336;DHT22;156;48.738;9.228;2023-05-07T00:49:39;14.40;15.00
336;DHT22;156;48.738;9.228;2023-05-07T00:52:09;14.30;32.90
336;DHT22;156;48.738;9.228;2023-05-07T00:54:37;14.20;43.70
336;DHT22;156;48.738;9.228;2023-05-07T00:57:05;14.20;46.20
336;DHT22;156;48.738;9.228;2023-05-07T00:59:32;14.30;46.80
336;DHT22;156;48.738;9.228;2023-05-07T01:02:01;14.30;47.50
336;DHT22;156;48.738;9.228;2023-05-07T01:04:29;14.40;46.90
336;DHT22;156;48.738;9.228;2023-05-07T01:06:56;14.50;47.70
336;DHT22;156;48.738;9.228;2023-05-07T01:09:25;14.50;47.20
336;DHT22;156;48.738;9.228;2023-05-07T01:11:52;14.60;40.00
336;DHT22;156;48.738;9.228;2023-05-07T01:14:20;14.50;42.70
336;DHT22;156;48.738;9.228;2023-05-07T01:16:48;14.50;38.90
336;DHT22;156;48.738;9.228;2023-05-07T01:19:18;14.50;39.70
336;DHT22;156;48.738;9.228;2023-05-07T01:21:47;14.50;41.30
336;DHT22;156;48.738;9.228;2023-05-07T01:24:16;14.50;38.70
336;DHT22;156;48.738;9.228;2023-05-07T01:26:43;14.50;35.60
336;DHT22;156;48.738;9.228;2023-05-07T01:29:11;14.50;38.90
336;DHT22;156;48.738;9.228;2023-05-07T01:31:38;14.50;41.80
336;DHT22;156;48.738;9.228;2023-05-07T01:34:08;14.50;39.80
336;DHT22;156;48.738;9.228;2023-05-07T01:36:37;14.50;41.30
336;DHT22;156;48.738;9.228;2023-05-07T01:39:06;14.60;34.40
336;DHT22;156;48.738;9.228;2023-05-07T01:41:35;14.60;34.80
336;DHT22;156;48.738;9.228;2023-05-07T01:44:03;14.50;35.80
336;DHT22;156;48.738;9.228;2023-05-07T01:46:31;14.60;34.10
336;DHT22;156;48.738;9.228;2023-05-07T01:48:59;14.60;29.80
336;DHT22;156;48.738;9.228;2023-05-07T01:51:26;14.50;28.50
336;DHT22;156;48.738;9.228;2023-05-07T01:53:53;14.50;28.20
336;DHT22;156;48.738;9.228;2023-05-07T01:56:21;14.50;26.00
336;DHT22;156;48.738;9.228;2023-05-07T01:58:50;14.50;28.50
336;DHT22;156;48.738;9.228;2023-05-07T02:01:17;14.50;25.30
336;DHT22;156;48.738;9.228;2023-05-07T02:03:44;14.40;24.50
336;DHT22;156;48.738;9.228;2023-05-07T02:06:11;14.40;22.80
336;DHT22;156;48.738;9.228;2023-05-07T02:08:38;14.40;22.00
336;DHT22;156;48.738;9.228;2023-05-07T02:11:05;14.60;19.50
336;DHT22;156;48.738;9.228;2023-05-07T02:13:33;14.50;17.60
336;DHT22;156;48.738;9.228;2023-05-07T02:16:01;14.50;17.50
336;DHT22;156;48.738;9.228;2023-05-07T02:18:29;14.40;16.80
336;DHT22;156;48.738;9.228;2023-05-07T02:20:56;14.40;16.90
336;DHT22;156;48.738;9.228;2023-05-07T02:23:23;14.40;17.20
336;DHT22;156;48.738;9.228;2023-05-07T02:25:50;14.40;17.00
336;DHT22;156;48.738;9.228;2023-05-07T02:28:17;14.40;16.50
336;DHT22;156;48.738;9.228;2023-05-07T02:30:44;14.30;18.20
336;DHT22;156;48.738;9.228;2023-05-07T02:33:12;14.30;19.90
336;DHT22;156;48.738;9.228;2023-05-07T02:35:39;14.30;21.10
336;DHT22;156;48.738;9.228;2023-05-07T02:38:06;14.20;21.00
336;DHT22;156;48.738;9.228;2023-05-07T02:40:36;14.20;25.30
336;DHT22;156;48.738;9.228;2023-05-07T02:43:04;14.20;26.30
336;DHT22;156;48.738;9.228;2023-05-07T02:45:31;14.10;26.30
336;DHT22;156;48.738;9.228;2023-05-07T02:47:59;14.10;29.40
336;DHT22;156;48.738;9.228;2023-05-07T02:50:27;14.00;29.60
336;DHT22;156;48.738;9.228;2023-05-07T02:52:54;14.00;33.20
336;DHT22;156;48.738;9.228;2023-05-07T02:55:21;14.00;29.90
336;DHT22;156;48.738;9.228;2023-05-07T02:57:48;14.00;32.00
336;DHT22;156;48.738;9.228;2023-05-07T03:00:20;14.10;21.30
336;DHT22;156;48.738;9.228;2023-05-07T03:02:47;14.10;21.10
336;DHT22;156;48.738;9.228;2023-05-07T03:05:14;14.20;25.00
336;DHT22;156;48.738;9.228;2023-05-07T03:07:42;14.10;28.90
336;DHT22;156;48.738;9.228;2023-05-07T03:10:11;14.20;23.60
336;DHT22;156;48.738;9.228;2023-05-07T03:12:38;14.20;22.70
336;DHT22;156;48.738;9.228;2023-05-07T03:15:06;14.10;29.20
336;DHT22;156;48.738;9.228;2023-05-07T03:17:33;14.00;29.90
336;DHT22;156;48.738;9.228;2023-05-07T03:20:00;14.00;33.90
336;DHT22;156;48.738;9.228;2023-05-07T03:22:27;13.90;36.60
336;DHT22;156;48.738;9.228;2023-05-07T03:24:56;13.90;31.20
336;DHT22;156;48.738;9.228;2023-05-07T03:27:22;13.90;32.10
336;DHT22;156;48.738;9.228;2023-05-07T03:29:49;13.90;33.90
336;DHT22;156;48.738;9.228;2023-05-07T03:32:16;13.90;32.20
336;DHT22;156;48.738;9.228;2023-05-07T03:34:43;13.80;33.50
336;DHT22;156;48.738;9.228;2023-05-07T03:37:10;13.80;35.20
336;DHT22;156;48.738;9.228;2023-05-07T03:39:37;13.70;38.30
336;DHT22;156;48.738;9.228;2023-05-07T03:42:05;13.70;39.10
336;DHT22;156;48.738;9.228;2023-05-07T03:44:32;13.60;43.70
336;DHT22;156;48.738;9.228;2023-05-07T03:47:01;13.60;47.80
336;DHT22;156;48.738;9.228;2023-05-07T03:49:28;13.60;58.00
336;DHT22;156;48.738;9.228;2023-05-07T03:51:55;13.60;68.90
336;DHT22;156;48.738;9.228;2023-05-07T03:54:22;13.50;72.00
336;DHT22;156;48.738;9.228;2023-05-07T03:56:49;13.50;73.10
336;DHT22;156;48.738;9.228;2023-05-07T03:59:17;13.50;80.40
336;DHT22;156;48.738;9.228;2023-05-07T04:01:44;13.50;82.00
336;DHT22;156;48.738;9.228;2023-05-07T04:04:11;13.50;82.70
336;DHT22;156;48.738;9.228;2023-05-07T04:06:38;13.50;83.50
336;DHT22;156;48.738;9.228;2023-05-07T04:09:05;13.50;83.20
336;DHT22;156;48.738;9.228;2023-05-07T04:11:32;13.50;85.30
336;DHT22;156;48.738;9.228;2023-05-07T04:13:59;13.50;82.10
336;DHT22;156;48.738;9.228;2023-05-07T04:16:27;13.70;73.10
336;DHT22;156;48.738;9.228;2023-05-07T04:18:54;13.70;73.20
336;DHT22;156;48.738;9.228;2023-05-07T04:21:21;13.60;78.60
336;DHT22;156;48.738;9.228;2023-05-07T04:23:48;13.50;83.10
336;DHT22;156;48.738;9.228;2023-05-07T04:26:15;13.40;84.80
336;DHT22;156;48.738;9.228;2023-05-07T04:28:42;13.40;91.10
336;DHT22;156;48.738;9.228;2023-05-07T04:31:10;13.40;94.40
336;DHT22;156;48.738;9.228;2023-05-07T04:33:38;13.40;95.70
336;DHT22;156;48.738;9.228;2023-05-07T04:36:05;13.40;97.10
336;DHT22;156;48.738;9.228;2023-05-07T04:38:32;13.50;95.50
336;DHT22;156;48.738;9.228;2023-05-07T04:41:03;13.50;93.30
336;DHT22;156;48.738;9.228;2023-05-07T04:43:30;13.50;94.30
336;DHT22;156;48.738;9.228;2023-05-07T04:45:57;13.50;94.90
336;DHT22;156;48.738;9.228;2023-05-07T04:48:24;13.50;95.40
336;DHT22;156;48.738;9.228;2023-05-07T04:50:53;13.50;95.40
336;DHT22;156;48.738;9.228;2023-05-07T04:53:23;13.60;93.90
336;DHT22;156;48.738;9.228;2023-05-07T04:55:55;13.60;96.70
336;DHT22;156;48.738;9.228;2023-05-07T04:58:22;13.50;98.10
336;DHT22;156;48.738;9.228;2023-05-07T05:00:51;13.50;98.50
336;DHT22;156;48.738;9.228;2023-05-07T05:03:18;13.50;99.90
336;DHT22;156;48.738;9.228;2023-05-07T05:05:45;13.50;99.90
336;DHT22;156;48.738;9.228;2023-05-07T05:08:13;13.40;99.90
336;DHT22;156;48.738;9.228;2023-05-07T05:10:40;13.50;99.90
336;DHT22;156;48.738;9.228;2023-05-07T05:13:09;13.40;99.90
336;DHT22;156;48.738;9.228;2023-05-07T05:15:38;13.30;99.90
336;DHT22;156;48.738;9.228;2023-05-07T05:18:05;13.20;99.90
336;DHT22;156;48.738;9.228;2023-05-07T05:20:32;13.20;99.90
336;DHT22;156;48.738;9.228;2023-05-07T05:22:59;13.40;99.90
336;DHT22;156;48.738;9.228;2023-05-07T05:25:27;13.60;99.90
336;DHT22;156;48.738;9.228;2023-05-07T05:27:54;13.80;99.90
336;DHT22;156;48.738;9.228;2023-05-07T05:30:21;14.00;99.90
336;DHT22;156;48.738;9.228;2023-05-07T05:32:48;14.10;99.90
336;DHT22;156;48.738;9.228;2023-05-07T05:35:15;14.20;99.90
336;DHT22;156;48.738;9.228;2023-05-07T05:37:41;14.10;99.90
336;DHT22;156;48.738;9.228;2023-05-07T05:40:09;14.40;99.90
336;DHT22;156;48.738;9.228;2023-05-07T05:42:37;14.60;92.50
336;DHT22;156;48.738;9.228;2023-05-07T05:45:05;14.70;92.10
336;DHT22;156;48.738;9.228;2023-05-07T05:47:32;14.80;91.70
336;DHT22;156;48.738;9.228;2023-05-07T05:49:59;14.90;89.00
336;DHT22;156;48.738;9.228;2023-05-07T05:52:26;15.00;87.60
336;DHT22;156;48.738;9.228;2023-05-07T05:54:53;15.10;84.10
336;DHT22;156;48.738;9.228;2023-05-07T05:57:20;15.20;86.80
336;DHT22;156;48.738;9.228;2023-05-07T05:59:49;15.40;80.50
336;DHT22;156;48.738;9.228;2023-05-07T06:02:16;15.50;79.20
336;DHT22;156;48.738;9.228;2023-05-07T06:04:43;15.60;81.00
336;DHT22;156;48.738;9.228;2023-05-07T06:07:09;15.70;77.20
336;DHT22;156;48.738;9.228;2023-05-07T06:09:37;15.90;68.00
336;DHT22;156;48.738;9.228;2023-05-07T06:12:04;15.90;49.60
336;DHT22;156;48.738;9.228;2023-05-07T06:14:31;15.90;27.30
336;DHT22;156;48.738;9.228;2023-05-07T06:16:59;16.00;12.10
336;DHT22;156;48.738;9.228;2023-05-07T06:19:26;16.00;1.00
336;DHT22;156;48.738;9.228;2023-05-07T06:21:53;16.00;1.00
336;DHT22;156;48.738;9.228;2023-05-07T06:24:22;16.10;1.00
336;DHT22;156;48.738;9.228;2023-05-07T06:26:50;16.00;1.00
336;DHT22;156;48.738;9.228;2023-05-07T06:29:19;16.00;1.00
336;DHT22;156;48.738;9.228;2023-05-07T06:31:46;15.90;1.00
336;DHT22;156;48.738;9.228;2023-05-07T06:34:14;15.90;1.00
336;DHT22;156;48.738;9.228;2023-05-07T06:36:41;15.90;1.00
336;DHT22;156;48.738;9.228;2023-05-07T06:39:08;15.80;1.00
336;DHT22;156;48.738;9.228;2023-05-07T06:41:35;15.80;1.00
336;DHT22;156;48.738;9.228;2023-05-07T06:44:03;15.80;1.00
336;DHT22;156;48.738;9.228;2023-05-07T06:46:30;15.80;1.00
336;DHT22;156;48.738;9.228;2023-05-07T06:48:57;15.90;1.00
336;DHT22;156;48.738;9.228;2023-05-07T06:51:25;15.90;1.00
336;DHT22;156;48.738;9.228;2023-05-07T06:53:52;15.80;1.00
336;DHT22;156;48.738;9.228;2023-05-07T06:56:19;15.90;1.00
336;DHT22;156;48.738;9.228;2023-05-07T06:58:46;16.00;1.00
336;DHT22;156;48.738;9.228;2023-05-07T07:01:13;15.90;1.00
336;DHT22;156;48.738;9.228;2023-05-07T07:03:40;16.00;1.00
336;DHT22;156;48.738;9.228;2023-05-07T07:06:07;16.00;1.00
336;DHT22;156;48.738;9.228;2023-05-07T07:08:38;16.10;1.00
336;DHT22;156;48.738;9.228;2023-05-07T07:11:05;16.10;1.00
336;DHT22;156;48.738;9.228;2023-05-07T07:13:32;16.30;1.00
336;DHT22;156;48.738;9.228;2023-05-07T07:15:59;16.50;1.00
336;DHT22;156;48.738;9.228;2023-05-07T07:18:26;16.60;1.00
336;DHT22;156;48.738;9.228;2023-05-07T07:20:53;16.80;1.00
336;DHT22;156;48.738;9.228;2023-05-07T07:23:20;17.00;1.00
336;DHT22;156;48.738;9.228;2023-05-07T07:25:49;17.10;1.00
336;DHT22;156;48.738;9.228;2023-05-07T07:28:16;17.30;1.00
336;DHT22;156;48.738;9.228;2023-05-07T07:30:43;17.50;1.00
336;DHT22;156;48.738;9.228;2023-05-07T07:33:10;17.60;1.00
336;DHT22;156;48.738;9.228;2023-05-07T07:35:37;17.80;1.00
336;DHT22;156;48.738;9.228;2023-05-07T07:38:04;18.00;1.00
336;DHT22;156;48.738;9.228;2023-05-07T07:40:31;18.10;1.00
336;DHT22;156;48.738;9.228;2023-05-07T07:42:59;18.20;1.00
336;DHT22;156;48.738;9.228;2023-05-07T07:45:27;18.20;1.00
336;DHT22;156;48.738;9.228;2023-05-07T07:47:53;18.30;1.00
336;DHT22;156;48.738;9.228;2023-05-07T07:50:20;18.50;1.00
336;DHT22;156;48.738;9.228;2023-05-07T07:52:48;18.70;1.00
336;DHT22;156;48.738;9.228;2023-05-07T07:55:15;18.90;1.00
336;DHT22;156;48.738;9.228;2023-05-07T07:57:46;19.10;1.00
336;DHT22;156;48.738;9.228;2023-05-07T08:00:16;19.20;1.00
336;DHT22;156;48.738;9.228;2023-05-07T08:02:43;19.20;1.00
336;DHT22;156;48.738;9.228;2023-05-07T08:05:10;19.30;1.00
336;DHT22;156;48.738;9.228;2023-05-07T08:07:37;19.50;1.00
336;DHT22;156;48.738;9.228;2023-05-07T08:10:04;19.40;1.00
336;DHT22;156;48.738;9.228;2023-05-07T08:12:31;19.40;1.00
336;DHT22;156;48.738;9.228;2023-05-07T08:14:58;19.70;1.00
336;DHT22;156;48.738;9.228;2023-05-07T08:17:29;19.70;1.00
336;DHT22;156;48.738;9.228;2023-05-07T08:19:56;19.80;1.00
336;DHT22;156;48.738;9.228;2023-05-07T08:22:23;19.80;1.00
336;DHT22;156;48.738;9.228;2023-05-07T08:24:50;19.70;1.00
336;DHT22;156;48.738;9.228;2023-05-07T08:27:18;19.70;1.00
336;DHT22;156;48.738;9.228;2023-05-07T08:29:45;19.70;1.00
336;DHT22;156;48.738;9.228;2023-05-07T08:32:13;19.80;1.00
336;DHT22;156;48.738;9.228;2023-05-07T08:34:41;19.80;1.00
336;DHT22;156;48.738;9.228;2023-05-07T08:37:08;20.00;1.00
336;DHT22;156;48.738;9.228;2023-05-07T08:39:35;20.10;1.00
336;DHT22;156;48.738;9.228;2023-05-07T08:42:04;20.30;1.00
336;DHT22;156;48.738;9.228;2023-05-07T08:44:33;20.30;1.00
336;DHT22;156;48.738;9.228;2023-05-07T08:47:01;20.10;1.00
336;DHT22;156;48.738;9.228;2023-05-07T08:49:28;20.10;1.00
336;DHT22;156;48.738;9.228;2023-05-07T08:51:57;20.10;1.00
336;DHT22;156;48.738;9.228;2023-05-07T08:54:25;20.10;1.00
336;DHT22;156;48.738;9.228;2023-05-07T08:56:52;20.20;1.00
336;DHT22;156;48.738;9.228;2023-05-07T08:59:19;20.20;1.00
336;DHT22;156;48.738;9.228;2023-05-07T09:01:50;20.20;1.00
336;DHT22;156;48.738;9.228;2023-05-07T09:04:17;20.30;1.00
336;DHT22;156;48.738;9.228;2023-05-07T09:06:46;20.40;1.00
336;DHT22;156;48.738;9.228;2023-05-07T09:09:17;20.40;1.00
336;DHT22;156;48.738;9.228;2023-05-07T09:11:46;20.40;1.00
336;DHT22;156;48.738;9.228;2023-05-07T09:14:13;20.50;1.00
336;DHT22;156;48.738;9.228;2023-05-07T09:16:40;20.60;1.00
336;DHT22;156;48.738;9.228;2023-05-07T09:19:07;20.50;1.00
336;DHT22;156;48.738;9.228;2023-05-07T09:21:35;20.70;1.00
336;DHT22;156;48.738;9.228;2023-05-07T09:24:02;20.70;1.00
336;DHT22;156;48.738;9.228;2023-05-07T09:26:30;20.90;1.00
336;DHT22;156;48.738;9.228;2023-05-07T09:28:58;21.00;1.00
336;DHT22;156;48.738;9.228;2023-05-07T09:31:25;21.00;1.00
336;DHT22;156;48.738;9.228;2023-05-07T09:33:53;21.10;1.00
336;DHT22;156;48.738;9.228;2023-05-07T09:36:21;21.20;1.00
336;DHT22;156;48.738;9.228;2023-05-07T09:38:48;21.20;1.00
336;DHT22;156;48.738;9.228;2023-05-07T09:41:19;21.20;1.00
336;DHT22;156;48.738;9.228;2023-05-07T09:43:53;21.30;1.00
336;DHT22;156;48.738;9.228;2023-05-07T09:46:25;21.30;1.00
336;DHT22;156;48.738;9.228;2023-05-07T09:48:57;21.50;1.00
336;DHT22;156;48.738;9.228;2023-05-07T09:51:29;21.50;1.00
336;DHT22;156;48.738;9.228;2023-05-07T09:53:57;21.40;1.00
336;DHT22;156;48.738;9.228;2023-05-07T09:56:27;21.40;1.00
336;DHT22;156;48.738;9.228;2023-05-07T09:58:57;21.50;1.00
336;DHT22;156;48.738;9.228;2023-05-07T10:01:25;21.70;1.00
336;DHT22;156;48.738;9.228;2023-05-07T10:03:53;21.70;1.00
336;DHT22;156;48.738;9.228;2023-05-07T10:06:21;21.90;1.00
336;DHT22;156;48.738;9.228;2023-05-07T10:08:49;21.90;1.00
336;DHT22;156;48.738;9.228;2023-05-07T10:11:17;22.00;1.00
336;DHT22;156;48.738;9.228;2023-05-07T10:13:44;22.00;1.00
336;DHT22;156;48.738;9.228;2023-05-07T10:16:14;22.00;1.00
336;DHT22;156;48.738;9.228;2023-05-07T10:18:41;22.20;1.00
336;DHT22;156;48.738;9.228;2023-05-07T10:21:15;22.30;1.00
336;DHT22;156;48.738;9.228;2023-05-07T10:23:45;22.40;1.00
336;DHT22;156;48.738;9.228;2023-05-07T10:26:13;22.50;1.00
336;DHT22;156;48.738;9.228;2023-05-07T10:28:45;22.60;1.00
336;DHT22;156;48.738;9.228;2023-05-07T10:31:40;22.60;1.00
336;DHT22;156;48.738;9.228;2023-05-07T10:34:11;22.80;1.00
336;DHT22;156;48.738;9.228;2023-05-07T10:36:39;22.80;1.00
336;DHT22;156;48.738;9.228;2023-05-07T10:39:06;23.00;1.00
336;DHT22;156;48.738;9.228;2023-05-07T10:41:33;23.20;1.00
336;DHT22;156;48.738;9.228;2023-05-07T10:44:02;23.40;1.00
336;DHT22;156;48.738;9.228;2023-05-07T10:46:33;23.50;1.00
336;DHT22;156;48.738;9.228;2023-05-07T10:49:07;23.50;1.00
336;DHT22;156;48.738;9.228;2023-05-07T10:51:36;23.70;1.00
336;DHT22;156;48.738;9.228;2023-05-07T10:54:22;23.80;1.00
336;DHT22;156;48.738;9.228;2023-05-07T10:56:53;23.90;1.00
336;DHT22;156;48.738;9.228;2023-05-07T10:59:34;23.70;1.00
336;DHT22;156;48.738;9.228;2023-05-07T11:02:09;23.90;1.00
336;DHT22;156;48.738;9.228;2023-05-07T11:04:39;24.00;1.00
336;DHT22;156;48.738;9.228;2023-05-07T11:07:24;24.10;1.00
336;DHT22;156;48.738;9.228;2023-05-07T11:10:02;23.90;1.00
336;DHT22;156;48.738;9.228;2023-05-07T11:15:44;24.20;1.00
336;DHT22;156;48.738;9.228;2023-05-07T11:18:13;24.00;1.00
336;DHT22;156;48.738;9.228;2023-05-07T11:20:52;24.00;1.00
336;DHT22;156;48.738;9.228;2023-05-07T11:23:58;24.10;1.00
336;DHT22;156;48.738;9.228;2023-05-07T11:26:25;24.30;1.00
336;DHT22;156;48.738;9.228;2023-05-07T11:28:53;24.30;1.00
336;DHT22;156;48.738;9.228;2023-05-07T11:31:22;24.50;1.00
336;DHT22;156;48.738;9.228;2023-05-07T11:33:51;24.70;1.00
336;DHT22;156;48.738;9.228;2023-05-07T11:36:19;25.00;1.00
336;DHT22;156;48.738;9.228;2023-05-07T11:38:47;25.00;1.00
336;DHT22;156;48.738;9.228;2023-05-07T11:41:15;24.90;1.00
336;DHT22;156;48.738;9.228;2023-05-07T11:43:56;24.90;1.00
336;DHT22;156;48.738;9.228;2023-05-07T11:46:23;24.50;1.00
336;DHT22;156;48.738;9.228;2023-05-07T11:48:52;24.50;1.00
336;DHT22;156;48.738;9.228;2023-05-07T11:51:19;24.40;1.00
336;DHT22;156;48.738;9.228;2023-05-07T11:53:47;24.20;1.00
336;DHT22;156;48.738;9.228;2023-05-07T11:56:15;24.10;1.00
336;DHT22;156;48.738;9.228;2023-05-07T11:58:43;24.10;1.00
336;DHT22;156;48.738;9.228;2023-05-07T12:01:12;23.90;1.00
336;DHT22;156;48.738;9.228;2023-05-07T12:03:40;23.90;1.00
336;DHT22;156;48.738;9.228;2023-05-07T12:06:10;23.70;1.00
336;DHT22;156;48.738;9.228;2023-05-07T12:08:39;23.60;1.00
336;DHT22;156;48.738;9.228;2023-05-07T12:11:11;23.60;1.00
336;DHT22;156;48.738;9.228;2023-05-07T12:13:41;23.70;1.00
336;DHT22;156;48.738;9.228;2023-05-07T12:16:08;23.40;1.00
336;DHT22;156;48.738;9.228;2023-05-07T12:18:37;23.00;1.00
336;DHT22;156;48.738;9.228;2023-05-07T12:21:05;22.80;1.00
336;DHT22;156;48.738;9.228;2023-05-07T12:23:35;22.40;1.00
336;DHT22;156;48.738;9.228;2023-05-07T12:26:03;22.30;1.00
336;DHT22;156;48.738;9.228;2023-05-07T12:28:31;22.20;1.00
336;DHT22;156;48.738;9.228;2023-05-07T12:31:03;22.00;1.00
336;DHT22;156;48.738;9.228;2023-05-07T12:33:31;21.90;1.00
336;DHT22;156;48.738;9.228;2023-05-07T12:36:02;21.70;1.00
336;DHT22;156;48.738;9.228;2023-05-07T12:38:36;21.50;1.00
336;DHT22;156;48.738;9.228;2023-05-07T12:41:04;20.90;1.00
336;DHT22;156;48.738;9.228;2023-05-07T12:43:31;20.40;1.00
336;DHT22;156;48.738;9.228;2023-05-07T12:46:00;20.00;1.00
336;DHT22;156;48.738;9.228;2023-05-07T12:48:28;19.70;1.00
336;DHT22;156;48.738;9.228;2023-05-07T12:50:56;19.30;1.00
336;DHT22;156;48.738;9.228;2023-05-07T12:53:24;18.90;1.00
336;DHT22;156;48.738;9.228;2023-05-07T12:55:54;18.70;1.00
336;DHT22;156;48.738;9.228;2023-05-07T12:58:24;18.50;1.00
336;DHT22;156;48.738;9.228;2023-05-07T13:00:52;18.30;1.00
336;DHT22;156;48.738;9.228;2023-05-07T13:03:26;18.20;1.00
336;DHT22;156;48.738;9.228;2023-05-07T13:05:55;18.10;1.00
336;DHT22;156;48.738;9.228;2023-05-07T13:08:29;18.00;1.00
336;DHT22;156;48.738;9.228;2023-05-07T13:10:59;17.70;1.00
336;DHT22;156;48.738;9.228;2023-05-07T13:13:29;16.90;1.00
336;DHT22;156;48.738;9.228;2023-05-07T13:15:56;16.30;1.00
336;DHT22;156;48.738;9.228;2023-05-07T13:18:24;15.70;26.80
336;DHT22;156;48.738;9.228;2023-05-07T13:20:52;15.20;97.80
336;DHT22;156;48.738;9.228;2023-05-07T13:23:19;14.80;99.90
336;DHT22;156;48.738;9.228;2023-05-07T13:25:46;14.60;99.90
336;DHT22;156;48.738;9.228;2023-05-07T13:28:14;14.40;99.90
336;DHT22;156;48.738;9.228;2023-05-07T13:30:41;14.30;99.90
336;DHT22;156;48.738;9.228;2023-05-07T13:33:08;14.30;99.90
336;DHT22;156;48.738;9.228;2023-05-07T13:35:35;14.30;99.90
336;DHT22;156;48.738;9.228;2023-05-07T13:38:03;14.30;99.90
336;DHT22;156;48.738;9.228;2023-05-07T13:40:30;14.20;99.90
336;DHT22;156;48.738;9.228;2023-05-07T13:42:58;14.20;99.90
336;DHT22;156;48.738;9.228;2023-05-07T13:45:27;14.20;99.90
336;DHT22;156;48.738;9.228;2023-05-07T13:47:55;14.20;99.90
336;DHT22;156;48.738;9.228;2023-05-07T13:50:22;14.40;99.90
336;DHT22;156;48.738;9.228;2023-05-07T13:52:50;14.50;99.90
336;DHT22;156;48.738;9.228;2023-05-07T13:55:17;14.60;99.90
336;DHT22;156;48.738;9.228;2023-05-07T13:57:44;14.60;99.90
336;DHT22;156;48.738;9.228;2023-05-07T14:00:12;14.50;99.90
336;DHT22;156;48.738;9.228;2023-05-07T14:02:43;14.60;99.90
336;DHT22;156;48.738;9.228;2023-05-07T14:05:10;14.50;99.90
336;DHT22;156;48.738;9.228;2023-05-07T14:07:39;14.50;99.90
336;DHT22;156;48.738;9.228;2023-05-07T14:10:06;14.50;99.90
336;DHT22;156;48.738;9.228;2023-05-07T14:12:33;14.40;99.90
336;DHT22;156;48.738;9.228;2023-05-07T14:15:00;14.30;99.90
336;DHT22;156;48.738;9.228;2023-05-07T14:17:27;14.30;99.90
336;DHT22;156;48.738;9.228;2023-05-07T14:19:57;14.40;99.90
336;DHT22;156;48.738;9.228;2023-05-07T14:22:24;14.40;99.90
336;DHT22;156;48.738;9.228;2023-05-07T14:24:51;14.40;99.90
336;DHT22;156;48.738;9.228;2023-05-07T14:27:20;14.40;99.90
336;DHT22;156;48.738;9.228;2023-05-07T14:29:47;14.30;99.90
336;DHT22;156;48.738;9.228;2023-05-07T14:32:16;14.30;99.90
336;DHT22;156;48.738;9.228;2023-05-07T14:34:43;14.20;99.90
336;DHT22;156;48.738;9.228;2023-05-07T14:37:12;14.20;99.90
336;DHT22;156;48.738;9.228;2023-05-07T14:39:39;14.20;99.90
336;DHT22;156;48.738;9.228;2023-05-07T14:42:06;14.20;99.90
336;DHT22;156;48.738;9.228;2023-05-07T14:44:34;14.30;99.90
336;DHT22;156;48.738;9.228;2023-05-07T14:47:01;14.30;99.90
336;DHT22;156;48.738;9.228;2023-05-07T14:49:27;14.30;99.90
336;DHT22;156;48.738;9.228;2023-05-07T14:51:57;14.40;99.90
336;DHT22;156;48.738;9.228;2023-05-07T14:54:26;14.40;99.90
336;DHT22;156;48.738;9.228;2023-05-07T14:56:53;14.50;99.90
336;DHT22;156;48.738;9.228;2023-05-07T14:59:20;14.70;99.90
336;DHT22;156;48.738;9.228;2023-05-07T15:01:47;14.80;99.90
336;DHT22;156;48.738;9.228;2023-05-07T15:04:14;14.90;99.90
336;DHT22;156;48.738;9.228;2023-05-07T15:06:41;15.00;99.90
336;DHT22;156;48.738;9.228;2023-05-07T15:09:08;15.10;99.90
336;DHT22;156;48.738;9.228;2023-05-07T15:11:36;15.20;99.90
336;DHT22;156;48.738;9.228;2023-05-07T15:14:03;15.30;99.90
336;DHT22;156;48.738;9.228;2023-05-07T15:16:30;15.40;99.90
336;DHT22;156;48.738;9.228;2023-05-07T15:18:58;15.60;99.90
336;DHT22;156;48.738;9.228;2023-05-07T15:21:25;15.70;99.90
336;DHT22;156;48.738;9.228;2023-05-07T15:23:52;15.90;99.90
336;DHT22;156;48.738;9.228;2023-05-07T15:26:19;16.00;99.90
336;DHT22;156;48.738;9.228;2023-05-07T15:28:48;16.00;99.90
336;DHT22;156;48.738;9.228;2023-05-07T15:31:15;16.20;99.90
336;DHT22;156;48.738;9.228;2023-05-07T15:33:43;16.30;99.90
336;DHT22;156;48.738;9.228;2023-05-07T15:36:13;16.40;99.90
336;DHT22;156;48.738;9.228;2023-05-07T15:38:40;16.50;99.90
336;DHT22;156;48.738;9.228;2023-05-07T15:41:07;16.60;99.90
336;DHT22;156;48.738;9.228;2023-05-07T15:43:43;16.70;99.90
336;DHT22;156;48.738;9.228;2023-05-07T15:46:12;16.80;99.90
336;DHT22;156;48.738;9.228;2023-05-07T15:48:46;16.40;99.90
336;DHT22;156;48.738;9.228;2023-05-07T15:51:13;16.10;99.90
336;DHT22;156;48.738;9.228;2023-05-07T15:53:40;15.50;99.90
336;DHT22;156;48.738;9.228;2023-05-07T15:56:07;15.50;99.90
336;DHT22;156;48.738;9.228;2023-05-07T15:58:34;15.50;99.90
336;DHT22;156;48.738;9.228;2023-05-07T16:01:04;15.60;99.90
336;DHT22;156;48.738;9.228;2023-05-07T16:03:33;15.50;99.90
336;DHT22;156;48.738;9.228;2023-05-07T16:06:00;15.50;99.90
336;DHT22;156;48.738;9.228;2023-05-07T16:08:27;15.50;99.90
336;DHT22;156;48.738;9.228;2023-05-07T16:10:54;15.60;99.90
336;DHT22;156;48.738;9.228;2023-05-07T16:13:21;15.50;99.90
336;DHT22;156;48.738;9.228;2023-05-07T16:15:49;15.40;99.90
336;DHT22;156;48.738;9.228;2023-05-07T16:18:17;15.30;99.90
336;DHT22;156;48.738;9.228;2023-05-07T16:20:46;15.20;99.90
336;DHT22;156;48.738;9.228;2023-05-07T16:23:13;15.10;99.90
336;DHT22;156;48.738;9.228;2023-05-07T16:25:40;15.10;99.90
336;DHT22;156;48.738;9.228;2023-05-07T16:28:11;15.00;99.90
336;DHT22;156;48.738;9.228;2023-05-07T16:30:38;15.00;99.90
336;DHT22;156;48.738;9.228;2023-05-07T16:33:05;15.00;99.90
336;DHT22;156;48.738;9.228;2023-05-07T16:35:35;15.00;99.90
336;DHT22;156;48.738;9.228;2023-05-07T16:38:03;15.00;99.90
336;DHT22;156;48.738;9.228;2023-05-07T16:40:37;15.00;99.90
336;DHT22;156;48.738;9.228;2023-05-07T16:43:04;15.00;99.90
336;DHT22;156;48.738;9.228;2023-05-07T16:45:33;15.00;99.90
336;DHT22;156;48.738;9.228;2023-05-07T16:48:00;14.90;99.90
336;DHT22;156;48.738;9.228;2023-05-07T16:50:31;15.00;99.90